Historique des mesures à Cassis (13260), France
Quotidien Résumé Mai 28, 2017 Unités:  Métrique    US   Métrique/US
« Précédent (Jour)
Suivant (Jour) »
Quotidien Hebdomadaire Mensuel Annuel Période au choix
  Maximum: Minimum: Moyenne:
Température: TemperatureC °C 18.8 °C 23 °C
Point de rosée: DewpointC °C 6.9 °C 10.8 °C
Humidité: Humidity % 35 % 44 %
Vitesse du vent: 0 km/h 0 km/h 2.7 km/h
Rafales: 0 km/h - -
Vent:- - SE
Pression: PressurehPa hPa 1015.1 hPa -
Précipitations: 0.0 mm    
Historical Graphs
 
 
Mesures pour : Mai 28, 2017
Heure Temperature Point de rosée Pression Vent Vitesse du vent Rafales Humidité Pluie (par heure) Conditions
TemperatureC °C DewpointC °C PressurehPa hPa Calm     Humidity % HourlyPrecipMM mm SoftwareType W/m2
00:10 21.3 °C 10.1 °C 1016.5 hPa NNW 2.9 km/h 2.9 km/h 49 % 0.0 mm open2300-1.11 W/m2
01:11 21.0 °C 10.5 °C 1016.5 hPa Calm     51 % 0.0 mm open2300-1.11 W/m2
02:10 20.2 °C 10.3 °C 1016.5 hPa NNE 9.3 km/h 9.3 km/h 53 % 0.0 mm open2300-1.11 W/m2
03:10 19.4 °C 10.1 °C 1016.5 hPa NNW 3.4 km/h 3.4 km/h 55 % 0.0 mm open2300-1.11 W/m2
04:10 18.9 °C 10.2 °C 1016.5 hPa North 2.9 km/h 2.9 km/h 57 % 0.0 mm open2300-1.11 W/m2
05:10 18.8 °C 10.4 °C 1016.1 hPa Calm   3.4 km/h 58 % 0.0 mm open2300-1.11 W/m2
06:10 19.0 °C 10.6 °C 1016.5 hPa Calm     58 % 0.0 mm open2300-1.11 W/m2
07:11 19.3 °C 11.1 °C 1016.8 hPa Calm     59 % 0.0 mm open2300-1.11 W/m2
08:10 22.8 °C 12.9 °C 1016.8 hPa Calm     54 % 0.0 mm open2300-1.11 W/m2
09:10 22.1 °C 12.6 °C 1017.2 hPa Calm     55 % 0.0 mm open2300-1.11 W/m2
10:10 24.1 °C 14.5 °C 1017.5 hPa North 1.8 km/h 11.6 km/h 55 % 0.0 mm open2300-1.11 W/m2
11:10 27.6 °C 15.9 °C 1017.8 hPa SE 12.2 km/h 12.2 km/h 49 % 0.0 mm open2300-1.11 W/m2
12:10 29.0 °C 15.2 °C 1017.8 hPa Calm   6.4 km/h 43 % 0.0 mm open2300-1.11 W/m2
13:10 29.1 °C 12.9 °C 1017.5 hPa SW 12.7 km/h 20.9 km/h 37 % 0.0 mm open2300-1.11 W/m2
14:10 29.1 °C 14.2 °C 1017.2 hPa Calm   5.6 km/h 40 % 0.0 mm open2300-1.11 W/m2
15:10 29.1 °C 12.9 °C 1016.8 hPa East 3.4 km/h 4.2 km/h 37 % 0.0 mm open2300-1.11 W/m2
16:10 28.9 °C 11.8 °C 1016.5 hPa SSW 5.1 km/h 17.4 km/h 35 % 0.0 mm open2300-1.11 W/m2
17:10 28.0 °C 11.4 °C 1016.1 hPa SSE 3.4 km/h 6.4 km/h 36 % 0.0 mm open2300-1.11 W/m2
18:10 27.5 °C 11.0 °C 1015.8 hPa Calm   3.4 km/h 36 % 0.0 mm open2300-1.11 W/m2
19:10 26.5 °C 10.1 °C 1015.5 hPa WSW 5.1 km/h 8.9 km/h 36 % 0.0 mm open2300-1.11 W/m2
20:10 25.8 °C 9.1 °C 1015.5 hPa Calm     35 % 0.0 mm open2300-1.11 W/m2
21:10 23.8 °C 7.7 °C 1015.1 hPa Calm     36 % 0.0 mm open2300-1.11 W/m2
22:10 21.9 °C 6.9 °C 1015.5 hPa North 2.3 km/h 2.3 km/h 38 % 0.0 mm open2300-1.11 W/m2
23:11 21.1 °C 7.0 °C 1015.5 hPa NNE 2.3 km/h 2.3 km/h 40 % 0.0 mm open2300-1.11 W/m2
Observations météo à CASSIS
WU-History script by Weather Underground - 1 mb